Terminal Aerodrome Forecast
Issued by NWS Newport/Morehead City, NC

Home | Current Version | Previous Version | Text Only | Print | Product List | Glossary Off
Versions: 1 2 3 4 5 6 7 8 9 10 11 12 13 14 15

000
FTUS42 KMHX 262300
TAFEWN
TAF
KEWN 262340Z 2700/2724 31010KT P6SM BKN015
     FM270200 28005KT P6SM SCT025 BKN050
     FM271500 25010G17KT P6SM BKN050=

USA.gov is the U.S. government's official web portal to all federal, state and local government web resources and services.